Time;durP1;ratioP1;P1;durP2;ratioP2;P2;SDS_P1;SDS_P2;PMS_P1;PMS_P2;Temp;Humidity;BMP_temperature;BMP_pressure;BME280_temperature;BME280_humidity;BME280_pressure;Samples;Min_cycle;Max_cycle;Signal;HPM_P1;HPM_P2
2024/02/06 00:00:24;;;;;;;6.33;4.10;;;8.80;99.90;;;;;;5053906;28;20479;-78
2024/02/06 00:02:51;;;;;;;6.50;4.27;;;8.90;99.90;;;;;;5046174;28;20984;-78
2024/02/06 00:05:18;;;;;;;10.10;3.90;;;8.90;99.90;;;;;;5052000;28;20534;-79
2024/02/06 00:07:45;;;;;;;5.63;4.37;;;8.90;99.90;;;;;;5053850;28;20497;-79
2024/02/06 00:10:12;;;;;;;5.10;3.87;;;8.90;99.90;;;;;;5053238;28;21002;-81
2024/02/06 00:12:39;;;;;;;6.90;3.73;;;8.90;99.90;;;;;;5055908;28;20459;-78
2024/02/06 00:15:09;;;;;;;8.90;4.37;;;9.00;99.90;;;;;;5054552;28;20471;-82
2024/02/06 00:17:37;;;;;;;8.47;4.00;;;9.00;99.90;;;;;;5053891;28;20457;-79
2024/02/06 00:20:05;;;;;;;5.80;3.80;;;9.00;99.90;;;;;;5054138;28;20475;-80
2024/02/06 00:22:32;;;;;;;7.00;4.00;;;9.00;99.90;;;;;;5053640;28;20562;-78
2024/02/06 00:24:59;;;;;;;8.23;3.80;;;9.20;99.90;;;;;;5053771;28;20531;-79
2024/02/06 00:27:26;;;;;;;9.93;4.20;;;9.10;99.90;;;;;;5046152;28;20478;-77
2024/02/06 00:29:55;;;;;;;7.43;4.80;;;9.00;99.90;;;;;;5053130;28;20497;-80
2024/02/06 00:32:22;;;;;;;8.20;4.00;;;9.00;99.90;;;;;;5053673;28;20462;-78
2024/02/06 00:34:52;;;;;;;7.40;3.80;;;9.00;99.90;;;;;;5045110;28;20464;-77
2024/02/06 00:37:19;;;;;;;11.50;4.07;;;9.10;99.90;;;;;;5053130;28;20487;-81
2024/02/06 00:39:46;;;;;;;5.60;3.80;;;9.00;99.90;;;;;;5054616;28;20584;-79
2024/02/06 00:42:12;;;;;;;5.97;3.73;;;9.10;99.90;;;;;;5054347;28;20554;-78
2024/02/06 00:44:41;;;;;;;11.67;6.10;;;9.10;99.90;;;;;;5054941;28;20454;-80
2024/02/06 00:47:08;;;;;;;5.60;4.43;;;9.10;99.90;;;;;;5054565;28;20446;-80
2024/02/06 00:49:36;;;;;;;8.97;4.43;;;9.20;99.90;;;;;;5054566;28;20488;-79
2024/02/06 00:52:04;;;;;;;11.30;3.90;;;9.20;99.90;;;;;;5055986;28;20480;-80
2024/02/06 00:54:31;;;;;;;10.70;5.80;;;9.20;99.90;;;;;;5055461;28;20464;-80
2024/02/06 00:56:58;;;;;;;9.00;6.00;;;9.10;99.90;;;;;;5056691;28;20489;-79
2024/02/06 00:59:25;;;;;;;6.73;4.10;;;9.20;99.90;;;;;;5056949;28;20551;-77
2024/02/06 01:01:52;;;;;;;9.93;4.23;;;9.20;99.90;;;;;;5057194;28;20519;-78
2024/02/06 01:04:19;;;;;;;7.73;4.30;;;9.20;99.90;;;;;;5050247;28;20547;-79
2024/02/06 01:06:47;;;;;;;9.80;4.20;;;9.20;99.90;;;;;;5054822;28;20852;-81
2024/02/06 01:09:15;;;;;;;6.57;3.80;;;9.20;99.90;;;;;;5048458;28;20513;-79
2024/02/06 01:11:42;;;;;;;6.43;3.47;;;9.30;99.90;;;;;;5056537;28;20455;-78
2024/02/06 01:14:09;;;;;;;10.77;5.20;;;9.30;99.90;;;;;;5056592;28;20458;-80
2024/02/06 01:16:35;;;;;;;9.60;4.57;;;9.20;99.90;;;;;;5048651;28;20983;-79
2024/02/06 01:19:02;;;;;;;9.67;3.83;;;9.20;99.90;;;;;;5057198;28;20539;-80
2024/02/06 01:21:29;;;;;;;9.30;4.77;;;9.20;99.90;;;;;;5057542;28;20553;-80
2024/02/06 01:23:56;;;;;;;7.73;4.67;;;9.30;99.90;;;;;;5058235;28;20458;-79
2024/02/06 01:26:24;;;;;;;11.00;5.13;;;9.40;99.90;;;;;;5056891;28;20461;-79
2024/02/06 01:28:51;;;;;;;7.87;4.37;;;9.40;99.90;;;;;;5056086;28;20471;-79
2024/02/06 01:31:18;;;;;;;19.73;4.67;;;9.40;99.90;;;;;;5056304;28;21041;-80
2024/02/06 01:33:45;;;;;;;5.67;4.00;;;9.40;99.90;;;;;;5055829;28;20461;-80
2024/02/06 01:36:11;;;;;;;7.07;4.10;;;9.40;99.90;;;;;;5059669;28;20461;-79
2024/02/06 01:38:38;;;;;;;9.40;4.10;;;9.40;99.90;;;;;;5059855;28;20473;-77
2024/02/06 01:41:05;;;;;;;7.47;3.80;;;9.40;99.90;;;;;;5058624;28;20956;-80
2024/02/06 01:43:33;;;;;;;8.73;3.73;;;9.50;99.90;;;;;;5060094;28;20458;-82
2024/02/06 01:46:00;;;;;;;6.73;4.00;;;9.50;99.90;;;;;;5059349;28;20544;-80
2024/02/06 01:48:28;;;;;;;6.10;4.37;;;9.50;99.90;;;;;;5060222;28;20838;-81
2024/02/06 01:50:55;;;;;;;5.13;3.53;;;9.50;99.90;;;;;;5058767;28;20569;-77
2024/02/06 01:53:24;;;;;;;8.17;3.77;;;9.50;99.90;;;;;;5060772;28;20476;-79
2024/02/06 01:55:51;;;;;;;11.63;4.40;;;9.50;99.90;;;;;;5059711;28;20490;-79
2024/02/06 01:58:19;;;;;;;6.40;3.20;;;9.50;99.90;;;;;;5051674;28;20469;-82
2024/02/06 02:00:47;;;;;;;6.97;3.33;;;9.60;99.90;;;;;;5058834;28;20501;-80
2024/02/06 02:03:14;;;;;;;9.63;4.03;;;9.60;99.90;;;;;;5058286;28;20523;-80
2024/02/06 02:05:44;;;;;;;7.23;3.93;;;9.50;99.90;;;;;;5054735;28;21039;-79
2024/02/06 02:08:11;;;;;;;4.67;3.40;;;9.60;99.90;;;;;;5048996;28;20451;-78
2024/02/06 02:10:37;;;;;;;9.40;3.73;;;9.60;99.90;;;;;;5054559;28;20501;-77
2024/02/06 02:13:05;;;;;;;5.60;3.13;;;9.60;99.90;;;;;;5055319;28;20479;-78
2024/02/06 02:15:31;;;;;;;13.37;3.60;;;9.60;99.90;;;;;;5054868;28;20459;-78
2024/02/06 02:18:00;;;;;;;4.80;2.73;;;9.60;99.90;;;;;;5051725;28;20458;-79
2024/02/06 02:20:26;;;;;;;8.47;3.90;;;9.60;99.90;;;;;;5051024;28;20475;-78
2024/02/06 02:22:55;;;;;;;11.37;3.60;;;9.60;99.90;;;;;;5055285;28;20456;-79
2024/02/06 02:25:24;;;;;;;7.47;3.63;;;9.70;99.90;;;;;;5055223;28;20453;-80
2024/02/06 02:27:51;;;;;;;5.03;3.30;;;9.70;99.90;;;;;;5047144;28;20462;-78
2024/02/06 02:30:19;;;;;;;4.80;3.30;;;9.70;99.90;;;;;;5055143;28;20851;-78
2024/02/06 02:32:46;;;;;;;6.93;3.53;;;9.70;99.90;;;;;;5054427;28;20484;-78
2024/02/06 02:35:14;;;;;;;6.70;3.43;;;9.70;99.90;;;;;;5054078;28;20474;-78
2024/02/06 02:37:41;;;;;;;5.30;2.90;;;9.70;99.90;;;;;;5054715;28;20459;-79
2024/02/06 02:40:10;;;;;;;8.20;4.30;;;9.70;99.90;;;;;;5054332;28;20487;-79
2024/02/06 02:42:37;;;;;;;15.90;3.93;;;9.70;99.90;;;;;;5056939;28;20451;-81
2024/02/06 02:45:04;;;;;;;7.00;3.30;;;9.70;99.90;;;;;;5053830;28;20455;-78
2024/02/06 02:47:32;;;;;;;10.30;4.03;;;9.70;99.90;;;;;;5054571;28;20487;-80
2024/02/06 02:49:59;;;;;;;9.20;3.70;;;9.70;99.90;;;;;;5055431;28;20872;-79
2024/02/06 02:52:25;;;;;;;7.27;3.20;;;9.80;99.90;;;;;;5054929;28;20541;-79
2024/02/06 02:54:52;;;;;;;8.23;3.37;;;9.80;99.90;;;;;;5055986;28;20469;-77
2024/02/06 02:57:20;;;;;;;6.00;3.30;;;9.80;99.90;;;;;;5053862;28;20452;-78
2024/02/06 02:59:47;;;;;;;6.17;3.20;;;9.80;99.90;;;;;;5054233;28;20498;-79
2024/02/06 03:02:14;;;;;;;10.13;4.10;;;9.80;99.90;;;;;;5054164;28;20891;-79
2024/02/06 03:04:42;;;;;;;5.27;2.90;;;9.80;99.90;;;;;;5054710;28;20457;-79
2024/02/06 03:07:09;;;;;;;5.73;3.70;;;9.70;99.90;;;;;;5054979;28;20892;-79
2024/02/06 03:09:36;;;;;;;9.87;3.20;;;9.70;99.90;;;;;;5058378;28;20557;-79
2024/02/06 03:12:03;;;;;;;5.70;3.20;;;9.70;99.90;;;;;;5054949;28;20543;-79
2024/02/06 03:14:31;;;;;;;6.40;3.60;;;9.80;99.90;;;;;;5056134;28;20545;-80
2024/02/06 03:16:58;;;;;;;6.93;3.33;;;9.70;99.90;;;;;;5050806;28;20459;-78
2024/02/06 03:19:24;;;;;;;7.17;3.67;;;9.70;99.90;;;;;;5051246;28;20484;-78
2024/02/06 03:21:51;;;;;;;6.80;3.27;;;9.70;99.90;;;;;;5058619;28;21019;-79
2024/02/06 03:24:18;;;;;;;4.17;3.03;;;9.70;99.90;;;;;;5058235;28;20492;-80
2024/02/06 03:26:45;;;;;;;11.57;3.40;;;9.70;99.90;;;;;;5054250;28;20463;-79
2024/02/06 03:29:13;;;;;;;8.63;3.20;;;9.80;99.90;;;;;;5051099;28;20499;-78
2024/02/06 03:31:41;;;;;;;6.47;3.57;;;9.80;99.90;;;;;;5056457;28;20491;-80
2024/02/06 03:34:08;;;;;;;11.43;3.40;;;9.80;99.90;;;;;;5056910;28;20461;-79
2024/02/06 03:36:35;;;;;;;8.20;3.63;;;9.90;99.90;;;;;;5056965;28;20462;-79
2024/02/06 03:39:02;;;;;;;7.93;3.20;;;9.80;99.90;;;;;;5056011;28;20574;-79
2024/02/06 03:41:29;;;;;;;8.17;3.10;;;9.90;99.90;;;;;;5056936;28;20470;-78
2024/02/06 03:43:56;;;;;;;9.40;3.63;;;9.90;99.90;;;;;;5062118;28;20450;-79
2024/02/06 03:46:23;;;;;;;6.30;3.90;;;9.90;99.90;;;;;;5061904;28;20477;-80
2024/02/06 03:48:51;;;;;;;7.90;3.43;;;9.90;99.90;;;;;;5062642;28;20478;-79
2024/02/06 03:51:18;;;;;;;4.73;3.40;;;9.80;99.90;;;;;;5061550;28;20578;-78
2024/02/06 03:53:45;;;;;;;8.07;3.20;;;9.90;99.90;;;;;;5062528;28;21005;-80
2024/02/06 03:56:16;;;;;;;5.40;2.70;;;9.90;99.90;;;;;;5062533;28;20883;-80
2024/02/06 03:58:42;;;;;;;6.10;2.87;;;9.90;99.90;;;;;;5060720;28;20479;-78
2024/02/06 04:01:09;;;;;;;4.50;3.30;;;9.80;99.90;;;;;;5062067;28;20546;-79
2024/02/06 04:03:36;;;;;;;6.70;3.07;;;9.80;99.90;;;;;;5062819;28;20514;-78
2024/02/06 04:06:05;;;;;;;9.77;3.30;;;9.90;99.90;;;;;;5060020;28;20466;-78
2024/02/06 04:08:32;;;;;;;4.60;3.00;;;9.90;99.90;;;;;;5059382;28;20535;-79
2024/02/06 04:10:58;;;;;;;6.10;3.20;;;9.90;99.90;;;;;;5057340;28;20899;-80
2024/02/06 04:13:25;;;;;;;8.63;3.40;;;9.90;99.90;;;;;;5057229;28;20494;-79
2024/02/06 04:15:52;;;;;;;6.53;2.47;;;9.90;99.90;;;;;;5055804;28;20458;-80
2024/02/06 04:18:19;;;;;;;7.20;2.80;;;9.90;99.90;;;;;;5057306;28;20474;-80
2024/02/06 04:20:46;;;;;;;8.80;3.30;;;10.00;99.90;;;;;;5056206;28;20468;-80
2024/02/06 04:23:15;;;;;;;8.87;2.80;;;9.90;99.90;;;;;;5057130;28;20460;-79
2024/02/06 04:25:42;;;;;;;8.10;2.87;;;9.90;99.90;;;;;;5056371;28;20467;-79
2024/02/06 04:28:08;;;;;;;7.07;2.73;;;10.00;99.90;;;;;;5057061;28;20858;-81
2024/02/06 04:30:35;;;;;;;5.00;3.00;;;10.00;99.90;;;;;;5056977;28;20931;-81
2024/02/06 04:33:03;;;;;;;9.73;3.50;;;10.00;99.90;;;;;;5057486;28;20470;-79
2024/02/06 04:35:30;;;;;;;8.83;3.60;;;9.90;99.90;;;;;;5056117;28;20531;-79
2024/02/06 04:37:57;;;;;;;7.47;3.27;;;9.90;99.90;;;;;;5056954;28;20549;-81
2024/02/06 04:40:25;;;;;;;7.00;2.93;;;9.90;99.90;;;;;;5055912;28;20519;-82
2024/02/06 04:42:52;;;;;;;5.83;3.30;;;9.90;99.90;;;;;;5057154;28;20448;-80
2024/02/06 04:45:19;;;;;;;7.83;2.80;;;9.90;99.90;;;;;;5055438;28;20539;-81
2024/02/06 04:47:46;;;;;;;10.73;3.40;;;10.00;99.90;;;;;;5055800;28;20464;-80
2024/02/06 04:50:13;;;;;;;6.77;3.73;;;10.00;99.90;;;;;;5055315;28;20498;-80
2024/02/06 04:52:39;;;;;;;7.60;3.00;;;10.00;99.90;;;;;;5056136;28;20451;-81
2024/02/06 04:55:06;;;;;;;5.53;3.27;;;10.00;99.90;;;;;;5055867;28;20456;-81
2024/02/06 04:57:35;;;;;;;8.57;3.37;;;10.00;99.90;;;;;;5056586;28;20447;-81
2024/02/06 05:00:03;;;;;;;5.07;3.10;;;10.00;99.90;;;;;;5055846;28;20566;-81
2024/02/06 05:02:30;;;;;;;6.07;3.10;;;10.00;99.90;;;;;;5055776;28;20466;-80
2024/02/06 05:04:57;;;;;;;5.97;2.73;;;10.00;99.90;;;;;;5055741;28;20470;-80
2024/02/06 05:07:24;;;;;;;5.10;2.73;;;10.00;99.90;;;;;;5055277;28;20503;-80
2024/02/06 05:09:51;;;;;;;6.53;3.07;;;10.00;99.90;;;;;;5058238;28;20482;-79
2024/02/06 05:12:17;;;;;;;12.03;4.03;;;10.00;99.90;;;;;;5057456;28;20495;-79
2024/02/06 05:14:45;;;;;;;5.97;3.10;;;9.90;99.90;;;;;;5055997;28;20469;-80
2024/02/06 05:17:12;;;;;;;6.40;3.00;;;10.00;99.90;;;;;;5057008;28;20546;-80
2024/02/06 05:19:42;;;;;;;7.00;3.00;;;9.90;99.90;;;;;;5058166;28;20554;-79
2024/02/06 05:22:09;;;;;;;6.73;3.60;;;9.90;99.90;;;;;;5057884;28;20448;-79
2024/02/06 05:24:35;;;;;;;4.17;2.93;;;9.90;99.90;;;;;;5057144;28;20521;-79
2024/02/06 05:27:03;;;;;;;4.40;2.90;;;9.90;99.90;;;;;;5056699;28;20462;-79
2024/02/06 05:29:30;;;;;;;5.13;3.30;;;9.90;99.90;;;;;;5056982;28;20486;-79
2024/02/06 05:31:59;;;;;;;7.07;2.93;;;9.90;99.90;;;;;;5058725;28;20490;-78
2024/02/06 05:34:26;;;;;;;7.07;2.97;;;9.90;99.90;;;;;;5050756;28;20452;-77
2024/02/06 05:36:52;;;;;;;7.50;3.13;;;9.90;99.90;;;;;;5057784;28;20481;-80
2024/02/06 05:39:19;;;;;;;7.00;3.63;;;9.90;99.90;;;;;;5049201;28;20507;-78
2024/02/06 05:41:46;;;;;;;7.63;3.17;;;9.90;99.90;;;;;;5052410;28;20532;-81
2024/02/06 05:44:13;;;;;;;7.50;3.47;;;9.80;99.90;;;;;;5053829;28;20975;-82
2024/02/06 05:46:40;;;;;;;4.93;4.20;;;9.80;99.90;;;;;;5057157;28;20457;-81
2024/02/06 05:49:08;;;;;;;4.97;3.50;;;9.80;99.90;;;;;;5052412;28;20506;-80
2024/02/06 05:51:34;;;;;;;10.53;3.73;;;9.80;99.90;;;;;;5056125;28;20586;-79
2024/02/06 05:54:01;;;;;;;7.90;2.83;;;9.70;99.90;;;;;;5045901;28;20448;-79
2024/02/06 05:56:28;;;;;;;10.10;3.97;;;9.70;99.90;;;;;;5051277;28;20455;-77
2024/02/06 05:58:55;;;;;;;9.73;3.30;;;9.80;99.90;;;;;;5056445;28;20498;-83
2024/02/06 06:01:22;;;;;;;11.03;3.30;;;9.80;99.90;;;;;;5057416;28;20897;-79
2024/02/06 06:03:50;;;;;;;6.17;3.73;;;9.70;99.90;;;;;;5057811;28;20463;-79
2024/02/06 06:06:18;;;;;;;12.27;3.63;;;9.80;99.90;;;;;;5055686;28;20516;-79
2024/02/06 06:08:45;;;;;;;5.00;3.10;;;9.80;99.90;;;;;;5055726;28;20833;-79
2024/02/06 06:11:11;;;;;;;8.63;3.70;;;9.80;99.90;;;;;;5056019;28;20497;-79
2024/02/06 06:13:38;;;;;;;13.30;4.63;;;9.90;99.90;;;;;;5055717;28;20456;-78
2024/02/06 06:16:06;;;;;;;7.60;4.00;;;9.90;99.90;;;;;;5055894;28;20453;-78
2024/02/06 06:18:33;;;;;;;9.27;4.07;;;9.90;99.90;;;;;;5058705;28;20459;-78
2024/02/06 06:21:00;;;;;;;6.53;4.23;;;9.90;99.90;;;;;;5051714;28;20975;-81
2024/02/06 06:23:29;;;;;;;6.80;3.30;;;9.90;99.90;;;;;;5055810;28;20459;-80
2024/02/06 06:25:57;;;;;;;9.20;4.20;;;9.90;99.90;;;;;;5057391;28;20452;-79
2024/02/06 06:28:24;;;;;;;7.80;3.37;;;10.00;99.90;;;;;;5056468;28;20521;-79
2024/02/06 06:30:51;;;;;;;5.97;2.87;;;10.00;99.90;;;;;;5048410;28;20495;-78
2024/02/06 06:33:18;;;;;;;6.80;4.17;;;10.00;99.90;;;;;;5057004;28;20487;-79
2024/02/06 06:35:45;;;;;;;10.53;6.03;;;10.10;99.90;;;;;;5060506;28;20465;-81
2024/02/06 06:38:11;;;;;;;9.13;5.10;;;10.10;99.90;;;;;;5060338;28;20483;-79
2024/02/06 06:40:40;;;;;;;7.10;3.90;;;10.10;99.90;;;;;;5057798;28;20494;-81
2024/02/06 06:43:07;;;;;;;6.67;3.60;;;10.20;99.90;;;;;;5056467;28;20535;-81
2024/02/06 06:45:34;;;;;;;7.13;4.07;;;10.20;99.90;;;;;;5055154;28;20451;-79
2024/02/06 06:48:01;;;;;;;4.97;3.50;;;10.10;99.90;;;;;;5055881;28;20854;-80
2024/02/06 06:50:29;;;;;;;10.73;3.97;;;10.10;99.90;;;;;;5056359;28;20486;-80
2024/02/06 06:52:56;;;;;;;6.90;3.93;;;10.10;99.90;;;;;;5056434;28;20451;-80
2024/02/06 06:55:23;;;;;;;5.63;3.40;;;10.10;99.90;;;;;;5059842;28;20451;-80
2024/02/06 06:57:51;;;;;;;8.03;3.90;;;10.10;99.90;;;;;;5048531;28;20449;-80
2024/02/06 07:00:19;;;;;;;11.57;4.77;;;10.20;99.90;;;;;;5058698;28;20551;-79
2024/02/06 07:02:45;;;;;;;14.03;4.13;;;10.20;99.90;;;;;;5056895;28;20502;-82
2024/02/06 07:08:02;;;;;;;8.90;4.73;;;10.20;99.90;;;;;;5058054;28;20467;-82
2024/02/06 07:10:28;;;;;;;14.93;4.10;;;10.20;99.90;;;;;;5058612;28;20514;-80
2024/02/06 07:12:57;;;;;;;15.57;6.00;;;10.20;99.90;;;;;;5060745;28;20499;-80
2024/02/06 07:15:23;;;;;;;5.90;3.47;;;10.20;99.90;;;;;;5058428;28;20455;-80
2024/02/06 07:17:50;;;;;;;7.67;4.37;;;10.20;99.90;;;;;;5059302;28;20485;-80
2024/02/06 07:20:17;;;;;;;12.20;4.63;;;10.10;99.90;;;;;;5059513;28;20478;-81
2024/02/06 07:22:44;;;;;;;7.57;3.90;;;10.20;99.90;;;;;;5059915;28;20983;-84
2024/02/06 07:25:11;;;;;;;6.90;3.97;;;10.20;99.90;;;;;;5054722;28;20537;-82
2024/02/06 07:27:38;;;;;;;4.93;3.60;;;10.20;99.90;;;;;;5058277;28;20463;-80
2024/02/06 07:30:07;;;;;;;10.10;3.43;;;10.20;99.90;;;;;;5054048;28;20498;-81
2024/02/06 07:32:34;;;;;;;19.33;7.00;;;10.20;99.90;;;;;;5059927;28;20484;-80
2024/02/06 07:35:00;;;;;;;8.47;3.73;;;10.20;99.90;;;;;;5061483;28;20459;-83
2024/02/06 07:37:27;;;;;;;6.37;3.50;;;10.20;99.90;;;;;;5063068;28;20513;-81
2024/02/06 07:39:54;;;;;;;8.50;3.80;;;10.20;99.90;;;;;;5058444;28;20854;-82
2024/02/06 07:42:21;;;;;;;11.73;6.27;;;10.20;99.90;;;;;;5054738;28;20554;-83
2024/02/06 07:44:48;;;;;;;11.03;4.90;;;10.20;99.90;;;;;;5052448;28;20536;-79
2024/02/06 07:47:16;;;;;;;12.43;5.60;;;10.20;99.90;;;;;;5061763;28;20457;-79
2024/02/06 07:49:43;;;;;;;7.30;3.93;;;10.20;99.90;;;;;;5062011;28;20471;-81
2024/02/06 07:52:11;;;;;;;6.67;4.03;;;10.20;99.90;;;;;;5063616;28;20490;-81
2024/02/06 07:54:38;;;;;;;13.50;4.23;;;10.20;99.90;;;;;;5062165;28;20479;-82
2024/02/06 07:57:05;;;;;;;7.60;4.10;;;10.30;99.90;;;;;;5062355;28;20480;-82
2024/02/06 07:59:32;;;;;;;9.03;4.00;;;10.20;99.90;;;;;;5061907;28;20554;-82
2024/02/06 08:01:59;;;;;;;11.27;4.13;;;10.20;99.90;;;;;;5053976;28;20701;-81
2024/02/06 08:04:27;;;;;;;7.40;3.77;;;10.20;99.90;;;;;;5062320;28;20466;-83
2024/02/06 08:06:54;;;;;;;7.07;3.63;;;10.20;99.90;;;;;;5058846;28;20491;-83
2024/02/06 08:09:23;;;;;;;10.67;4.53;;;10.30;99.90;;;;;;5052192;28;20550;-81
2024/02/06 08:11:50;;;;;;;13.47;5.00;;;10.40;99.90;;;;;;5061694;28;20491;-83
2024/02/06 08:14:18;;;;;;;7.33;4.10;;;10.30;99.90;;;;;;5060055;28;20463;-82
2024/02/06 08:16:46;;;;;;;9.23;3.77;;;10.30;99.90;;;;;;5059480;28;20535;-81
2024/02/06 08:19:13;;;;;;;18.53;4.07;;;10.40;99.90;;;;;;5054962;28;20541;-78
2024/02/06 08:21:42;;;;;;;7.20;3.60;;;10.40;99.90;;;;;;5054206;28;20446;-81
2024/02/06 08:24:09;;;;;;;6.10;3.73;;;10.40;99.90;;;;;;5066112;28;20520;-84
2024/02/06 08:26:36;;;;;;;11.20;4.93;;;10.40;99.90;;;;;;5058919;28;20470;-81
2024/02/06 08:29:03;;;;;;;9.27;4.50;;;10.40;99.90;;;;;;5054600;28;21054;-81
2024/02/06 08:31:30;;;;;;;14.47;4.63;;;10.30;99.90;;;;;;5048936;28;20512;-80
2024/02/06 08:33:57;;;;;;;5.70;3.87;;;10.30;99.90;;;;;;5053179;28;20547;-82
2024/02/06 08:36:24;;;;;;;12.73;3.93;;;10.30;99.90;;;;;;5057274;28;20517;-81
2024/02/06 08:38:53;;;;;;;7.43;3.70;;;10.30;99.90;;;;;;5058350;28;20904;-83
2024/02/06 08:41:20;;;;;;;8.10;4.30;;;10.30;99.90;;;;;;5058282;28;20882;-82
2024/02/06 08:43:46;;;;;;;5.10;3.00;;;10.40;99.90;;;;;;5054635;28;20538;-82
2024/02/06 08:46:13;;;;;;;15.07;4.17;;;10.50;99.90;;;;;;5042771;28;20456;-79
2024/02/06 08:48:40;;;;;;;6.30;3.47;;;10.50;99.90;;;;;;5051428;28;20509;-81
2024/02/06 08:51:08;;;;;;;8.97;5.33;;;10.60;99.90;;;;;;5054999;28;20448;-81
2024/02/06 08:53:35;;;;;;;9.43;3.80;;;10.60;99.90;;;;;;5058805;28;20466;-80
2024/02/06 08:56:04;;;;;;;10.10;3.60;;;10.60;99.90;;;;;;5063901;28;20910;-80
2024/02/06 08:58:31;;;;;;;5.03;3.80;;;10.70;99.90;;;;;;5059135;28;20471;-82
2024/02/06 09:00:58;;;;;;;7.70;3.20;;;10.70;99.90;;;;;;5060037;28;20461;-80
2024/02/06 09:03:25;;;;;;;7.93;4.03;;;10.70;99.90;;;;;;5059615;28;20452;-79
2024/02/06 09:05:54;;;;;;;10.20;4.80;;;10.80;99.90;;;;;;5056454;28;20464;-82
2024/02/06 09:08:21;;;;;;;7.43;4.00;;;10.80;99.90;;;;;;5055411;28;20481;-82
2024/02/06 09:10:48;;;;;;;11.57;4.27;;;10.80;99.90;;;;;;5059527;28;20496;-80
2024/02/06 09:13:16;;;;;;;8.83;3.63;;;10.80;99.90;;;;;;5060968;28;20579;-80
2024/02/06 09:15:43;;;;;;;9.07;3.70;;;10.90;99.90;;;;;;5052692;28;20465;-79
2024/02/06 09:18:10;;;;;;;10.23;4.37;;;10.90;99.90;;;;;;5062694;28;20476;-82
2024/02/06 09:20:37;;;;;;;8.17;4.00;;;10.90;99.90;;;;;;5058750;28;20562;-80
2024/02/06 09:23:04;;;;;;;9.33;3.20;;;10.90;99.90;;;;;;5059618;28;20948;-80
2024/02/06 09:25:31;;;;;;;16.53;3.73;;;10.90;99.90;;;;;;5059674;28;20467;-81
2024/02/06 09:27:58;;;;;;;6.70;3.73;;;10.90;99.90;;;;;;5049738;28;20547;-80
2024/02/06 09:30:26;;;;;;;11.40;4.47;;;10.90;99.90;;;;;;5059046;28;20485;-81
2024/02/06 09:32:52;;;;;;;5.37;3.00;;;11.00;99.90;;;;;;5060481;28;20491;-80
2024/02/06 09:35:20;;;;;;;12.77;2.90;;;11.00;99.90;;;;;;5059260;28;20859;-80
2024/02/06 09:37:46;;;;;;;10.67;3.57;;;11.10;99.90;;;;;;5060215;28;20450;-82
2024/02/06 09:40:13;;;;;;;7.50;3.43;;;11.20;99.90;;;;;;5059829;28;20566;-79
2024/02/06 09:42:41;;;;;;;6.83;3.20;;;11.20;99.90;;;;;;5059218;28;20534;-80
2024/02/06 09:45:09;;;;;;;8.37;4.00;;;11.30;99.90;;;;;;5059473;28;20539;-78
2024/02/06 09:47:37;;;;;;;9.17;3.57;;;11.20;99.90;;;;;;5059692;28;20471;-80
2024/02/06 09:50:04;;;;;;;6.57;3.53;;;11.10;99.90;;;;;;5058649;28;20507;-79
2024/02/06 09:52:32;;;;;;;9.10;3.30;;;11.10;99.90;;;;;;5056350;28;20567;-80
2024/02/06 09:55:03;;;;;;;6.97;4.00;;;10.90;99.90;;;;;;5058911;28;20545;-79
2024/02/06 09:57:30;;;;;;;7.50;4.50;;;10.70;99.90;;;;;;5063662;28;20545;-80
2024/02/06 09:59:59;;;;;;;8.60;4.20;;;10.60;99.90;;;;;;5066577;28;20514;-81
2024/02/06 10:02:26;;;;;;;8.10;4.30;;;10.50;99.90;;;;;;5069003;28;20560;-83
2024/02/06 10:04:57;;;;;;;7.10;4.53;;;10.50;99.90;;;;;;5067263;28;20543;-80
2024/02/06 10:07:25;;;;;;;12.07;4.63;;;10.30;99.90;;;;;;5069024;28;20474;-82
2024/02/06 10:09:54;;;;;;;12.77;4.70;;;10.30;99.90;;;;;;5067181;28;20508;-82
2024/02/06 10:12:22;;;;;;;7.13;4.10;;;10.30;99.90;;;;;;5067878;28;20550;-82
2024/02/06 10:14:49;;;;;;;15.97;6.70;;;10.30;99.90;;;;;;5060952;28;20459;-83
2024/02/06 10:17:18;;;;;;;9.03;4.67;;;10.20;99.90;;;;;;5067811;28;20492;-82
2024/02/06 10:19:44;;;;;;;9.50;5.27;;;10.20;99.90;;;;;;5067523;28;20487;-81
2024/02/06 10:22:13;;;;;;;10.17;5.60;;;10.20;99.90;;;;;;5070291;28;20543;-82
2024/02/06 10:24:40;;;;;;;5.97;3.70;;;10.30;99.90;;;;;;5070813;28;20484;-80
2024/02/06 10:27:06;;;;;;;14.63;5.40;;;10.30;99.90;;;;;;5069484;28;20452;-80
2024/02/06 10:29:34;;;;;;;9.53;5.23;;;10.20;99.90;;;;;;5069243;28;20487;-80
2024/02/06 10:32:12;;;;;;;10.60;4.03;;;10.30;99.90;;;;;;5060354;28;20487;-81
2024/02/06 10:34:39;;;;;;;9.30;4.30;;;10.30;99.90;;;;;;5068929;28;20543;-80
2024/02/06 10:37:05;;;;;;;10.50;4.40;;;10.50;99.90;;;;;;5068566;28;20511;-81
2024/02/06 10:39:34;;;;;;;10.03;3.93;;;10.50;99.90;;;;;;5060943;28;20872;-83
2024/02/06 10:42:02;;;;;;;7.33;4.07;;;10.50;99.90;;;;;;5068615;28;20496;-80
2024/02/06 10:44:29;;;;;;;7.93;4.60;;;10.50;99.90;;;;;;5069891;28;20455;-82
2024/02/06 10:47:00;;;;;;;7.20;6.10;;;10.60;99.90;;;;;;5069561;28;20456;-82
2024/02/06 10:49:27;;;;;;;11.70;4.10;;;10.60;99.90;;;;;;5068949;28;20507;-82
2024/02/06 10:52:03;;;;;;;12.23;5.40;;;10.50;99.90;;;;;;5065875;28;20450;-81
2024/02/06 10:54:30;;;;;;;10.70;6.23;;;10.50;99.90;;;;;;5065169;28;20452;-81
2024/02/06 10:57:05;;;;;;;10.07;4.97;;;10.40;99.90;;;;;;5065525;28;20460;-84
2024/02/06 10:59:36;;;;;;;18.10;5.00;;;10.40;99.90;;;;;;5066897;28;20460;-84
2024/02/06 11:02:11;;;;;;;10.10;4.50;;;10.40;99.90;;;;;;5069385;28;20519;-84
2024/02/06 11:04:40;;;;;;;10.30;4.73;;;10.30;99.90;;;;;;5066330;28;20477;-80
2024/02/06 11:07:12;;;;;;;8.60;4.67;;;10.20;99.90;;;;;;5064792;28;20455;-83
2024/02/06 11:09:40;;;;;;;14.30;5.10;;;10.20;99.90;;;;;;5064901;28;20514;-79
2024/02/06 11:12:11;;;;;;;8.83;5.10;;;10.30;99.90;;;;;;5065707;28;20454;-80
2024/02/06 11:14:40;;;;;;;12.40;5.40;;;10.30;99.90;;;;;;5065458;28;20503;-80
2024/02/06 11:17:10;;;;;;;8.20;5.50;;;10.40;99.90;;;;;;5064644;28;20534;-81
2024/02/06 11:19:46;;;;;;;8.57;5.07;;;10.50;99.90;;;;;;5065425;28;20459;-80
2024/02/06 11:22:20;;;;;;;11.70;5.03;;;10.50;99.90;;;;;;5065694;28;20478;-79
2024/02/06 11:24:48;;;;;;;10.10;4.67;;;10.50;99.90;;;;;;5058735;28;20455;-81
2024/02/06 11:27:17;;;;;;;8.93;4.03;;;10.50;99.90;;;;;;5066588;28;20835;-80
2024/02/06 11:29:45;;;;;;;9.43;4.67;;;10.40;99.90;;;;;;5064857;28;20523;-81
2024/02/06 11:32:13;;;;;;;8.40;5.27;;;10.40;99.90;;;;;;5065762;28;20515;-83
2024/02/06 11:34:49;;;;;;;11.93;5.50;;;10.50;99.90;;;;;;5065442;28;20925;-83
2024/02/06 11:37:26;;;;;;;8.43;4.67;;;10.50;99.90;;;;;;5057254;28;20462;-80
2024/02/06 11:40:04;;;;;;;8.23;5.10;;;10.60;99.90;;;;;;5054893;28;20942;-80
2024/02/06 11:42:34;;;;;;;7.33;4.93;;;10.60;99.90;;;;;;5061427;28;20478;-82
2024/02/06 11:45:09;;;;;;;6.97;4.80;;;10.70;99.90;;;;;;5064267;28;20455;-81
2024/02/06 11:47:36;;;;;;;9.20;5.03;;;10.60;99.90;;;;;;5067046;28;20510;-82
2024/02/06 11:50:11;;;;;;;8.20;4.30;;;10.60;99.90;;;;;;5065853;28;20475;-81
2024/02/06 11:52:38;;;;;;;10.27;6.37;;;10.40;99.90;;;;;;5067483;28;21069;-79
2024/02/06 11:55:07;;;;;;;11.20;5.13;;;10.40;99.90;;;;;;5057646;28;21041;-83
2024/02/06 11:57:36;;;;;;;8.97;5.80;;;10.30;99.90;;;;;;5065837;28;20866;-80
2024/02/06 12:00:03;;;;;;;8.70;5.63;;;10.20;99.90;;;;;;5065208;28;20486;-81
2024/02/06 12:02:30;;;;;;;10.20;5.70;;;10.20;99.90;;;;;;5066466;28;20842;-80
2024/02/06 12:05:04;;;;;;;10.30;5.50;;;10.20;99.90;;;;;;5066611;28;20482;-81
2024/02/06 12:07:31;;;;;;;12.37;5.60;;;10.20;99.90;;;;;;5066443;28;20459;-82
2024/02/06 12:09:58;;;;;;;8.30;4.77;;;10.20;99.90;;;;;;5059397;28;20899;-81
2024/02/06 12:12:25;;;;;;;7.60;4.97;;;10.30;99.90;;;;;;5067163;28;20494;-80
2024/02/06 12:14:53;;;;;;;8.87;5.47;;;10.30;99.90;;;;;;5066419;28;20989;-80
2024/02/06 12:17:21;;;;;;;9.80;4.43;;;10.40;99.90;;;;;;5059385;28;20451;-82
2024/02/06 12:19:49;;;;;;;11.23;5.23;;;10.40;99.90;;;;;;5064073;28;20497;-80
2024/02/06 12:22:16;;;;;;;8.87;4.70;;;10.40;99.90;;;;;;5066244;28;20495;-82
2024/02/06 12:24:43;;;;;;;8.80;5.17;;;10.40;99.90;;;;;;5058461;28;20479;-80
2024/02/06 12:27:10;;;;;;;11.90;5.77;;;10.40;99.90;;;;;;5057850;28;20464;-81
2024/02/06 12:29:38;;;;;;;8.73;5.03;;;10.40;99.90;;;;;;5065978;28;21038;-79
2024/02/06 12:32:08;;;;;;;11.17;6.20;;;10.50;99.90;;;;;;5066512;28;20504;-81
2024/02/06 12:34:35;;;;;;;15.67;6.03;;;10.50;99.90;;;;;;5065849;28;20859;-82
2024/02/06 12:37:03;;;;;;;12.43;4.97;;;10.60;99.90;;;;;;5065099;28;20460;-81
2024/02/06 12:39:55;;;;;;;11.83;5.20;;;10.70;99.90;;;;;;5054670;28;20507;-81
2024/02/06 12:42:22;;;;;;;10.10;5.27;;;10.80;99.90;;;;;;5050934;28;20463;-80
2024/02/06 12:44:49;;;;;;;10.33;5.60;;;10.90;99.90;;;;;;5058328;28;20554;-81
2024/02/06 12:47:19;;;;;;;8.53;4.50;;;11.00;99.90;;;;;;5059641;28;20475;-80
2024/02/06 12:49:46;;;;;;;7.40;3.70;;;11.00;99.90;;;;;;5051294;28;20534;-79
2024/02/06 12:52:18;;;;;;;10.00;5.80;;;11.10;99.90;;;;;;5053069;28;20938;-79